createdAt,value
2018-03-07T00:01:07.884Z,12.10
2018-03-07T00:03:34.864Z,11.73
2018-03-07T00:06:01.088Z,13.00
2018-03-07T00:08:27.280Z,11.93
2018-03-07T00:10:54.221Z,11.70
2018-03-07T00:13:21.420Z,12.33
2018-03-07T00:15:47.680Z,12.17
2018-03-07T00:18:13.914Z,11.57
2018-03-07T00:20:40.086Z,10.60
2018-03-07T00:23:06.265Z,12.15
2018-03-07T00:25:32.469Z,13.30
2018-03-07T00:27:58.717Z,12.90
2018-03-07T00:30:24.964Z,12.43
2018-03-07T00:32:51.159Z,10.20
2018-03-07T00:35:17.376Z,13.18
2018-03-07T00:37:43.556Z,10.20
2018-03-07T00:40:10.505Z,11.87
2018-03-07T00:42:37.443Z,10.18
2018-03-07T00:45:04.364Z,10.70
2018-03-07T00:47:30.608Z,11.37
2018-03-07T00:49:57.533Z,10.82
2018-03-07T00:52:23.752Z,11.77
2018-03-07T00:54:49.985Z,10.77
2018-03-07T00:57:16.174Z,12.07
2018-03-07T00:59:42.401Z,11.52
2018-03-07T01:02:08.661Z,12.00
2018-03-07T01:04:34.811Z,11.37
2018-03-07T01:07:01.021Z,10.93
2018-03-07T01:09:27.243Z,11.23
2018-03-07T01:11:53.457Z,12.70
2018-03-07T01:14:19.673Z,11.82
2018-03-07T01:16:45.881Z,12.35
2018-03-07T01:19:12.090Z,11.57
2018-03-07T01:21:39.013Z,10.95
2018-03-07T01:24:05.228Z,12.97
2018-03-07T01:26:31.454Z,11.30
2018-03-07T01:28:57.690Z,11.05
2018-03-07T01:31:23.875Z,10.57
2018-03-07T01:33:50.095Z,11.40
2018-03-07T01:36:16.292Z,12.50
2018-03-07T01:38:42.493Z,10.23
2018-03-07T01:41:08.713Z,11.18
2018-03-07T01:43:34.879Z,9.95
2018-03-07T01:46:01.859Z,10.88
2018-03-07T01:48:28.097Z,11.63
2018-03-07T01:50:54.311Z,10.70
2018-03-07T01:53:20.499Z,10.73
2018-03-07T01:55:46.698Z,11.18
2018-03-07T01:58:12.892Z,10.23
2018-03-07T02:00:39.071Z,9.98
2018-03-07T02:03:05.261Z,9.63
2018-03-07T02:05:31.460Z,9.82
2018-03-07T02:07:58.368Z,10.90
2018-03-07T02:10:24.596Z,10.80
2018-03-07T02:12:50.776Z,11.38
2018-03-07T02:15:16.984Z,11.88
2018-03-07T02:17:43.944Z,11.45
2018-03-07T02:20:10.128Z,10.20
2018-03-07T02:22:36.295Z,9.93
2018-03-07T02:25:02.531Z,11.12
2018-03-07T02:27:28.758Z,10.70
2018-03-07T02:29:54.904Z,9.52
2018-03-07T02:32:21.141Z,11.93
2018-03-07T02:34:47.295Z,10.30
2018-03-07T02:37:13.492Z,10.32
2018-03-07T02:39:39.690Z,10.10
2018-03-07T02:42:05.873Z,11.10
2018-03-07T02:44:32.124Z,11.05
2018-03-07T02:46:59.060Z,10.95
2018-03-07T02:49:25.993Z,9.52
2018-03-07T02:51:52.168Z,10.45
2018-03-07T02:54:18.382Z,9.13
2018-03-07T02:56:44.566Z,9.68
2018-03-07T02:59:10.795Z,8.20
2018-03-07T03:01:37.024Z,9.35
2018-03-07T03:04:03.261Z,10.20
2018-03-07T03:06:29.423Z,8.82
2018-03-07T03:08:55.645Z,8.45
2018-03-07T03:11:21.873Z,8.90
2018-03-07T03:13:48.067Z,9.02
2018-03-07T03:16:14.254Z,8.35
2018-03-07T03:18:40.455Z,8.80
2018-03-07T03:21:07.413Z,8.43
2018-03-07T03:23:33.601Z,8.52
2018-03-07T03:25:59.795Z,7.43
2018-03-07T03:28:26.031Z,8.15
2018-03-07T03:30:52.274Z,8.35
2018-03-07T03:33:18.455Z,8.20
2018-03-07T03:35:44.663Z,8.82
2018-03-07T03:38:10.868Z,8.32
2018-03-07T03:40:37.108Z,8.60
2018-03-07T03:43:04.031Z,8.93
2018-03-07T03:45:30.206Z,8.27
2018-03-07T03:47:56.440Z,7.20
2018-03-07T03:50:22.623Z,7.72
2018-03-07T03:52:48.845Z,6.68
2018-03-07T03:55:15.105Z,5.93
2018-03-07T03:57:41.317Z,6.28
2018-03-07T04:00:08.255Z,6.53
2018-03-07T04:02:34.442Z,5.80
2018-03-07T04:05:00.661Z,6.37
2018-03-07T04:07:26.884Z,4.93
2018-03-07T04:09:53.068Z,6.00
2018-03-07T04:12:20.005Z,5.12
2018-03-07T04:14:46.194Z,5.40
2018-03-07T04:17:12.403Z,6.03
2018-03-07T04:19:38.625Z,6.45
2018-03-07T04:22:04.849Z,5.80
2018-03-07T04:24:31.049Z,6.95
2018-03-07T04:26:58.016Z,6.70
2018-03-07T04:29:24.220Z,6.35
2018-03-07T04:31:50.456Z,7.00
2018-03-07T04:34:17.388Z,6.40
2018-03-07T04:36:43.565Z,6.95
2018-03-07T04:39:09.763Z,6.68
2018-03-07T04:41:35.972Z,6.37
2018-03-07T04:44:02.173Z,5.68
2018-03-07T04:46:28.365Z,6.05
2018-03-07T04:48:54.688Z,5.00
2018-03-07T04:51:20.995Z,5.57
2018-03-07T04:53:47.180Z,4.50
2018-03-07T04:56:13.423Z,4.32
2018-03-07T04:58:39.655Z,5.45
2018-03-07T05:01:05.938Z,4.40
2018-03-07T05:03:32.134Z,4.40
2018-03-07T05:05:59.061Z,3.80
2018-03-07T05:08:25.244Z,3.60
2018-03-07T05:10:51.534Z,4.32
2018-03-07T05:13:18.496Z,4.20
2018-03-07T05:15:44.678Z,4.25
2018-03-07T05:18:10.872Z,4.45
2018-03-07T05:20:37.048Z,3.95
2018-03-07T05:23:03.244Z,3.75
2018-03-07T05:25:29.437Z,3.25
2018-03-07T05:27:55.660Z,3.10
2018-03-07T05:30:21.908Z,3.20
2018-03-07T05:32:48.164Z,2.90
2018-03-07T05:35:14.418Z,3.35
2018-03-07T05:37:41.396Z,2.55
2018-03-07T05:40:07.618Z,3.33
2018-03-07T05:42:33.845Z,3.37
2018-03-07T05:45:00.067Z,2.95
2018-03-07T05:47:26.263Z,2.83
2018-03-07T05:49:53.255Z,2.63
2018-03-07T05:52:19.443Z,3.07
2018-03-07T05:54:45.695Z,2.47
2018-03-07T05:57:12.631Z,2.72
2018-03-07T05:59:39.573Z,2.53
2018-03-07T06:02:06.548Z,2.60
2018-03-07T06:04:32.708Z,2.63
2018-03-07T06:06:58.945Z,3.20
2018-03-07T06:09:25.106Z,3.00
2018-03-07T06:11:52.017Z,2.23
2018-03-07T06:14:18.273Z,2.45
2018-03-07T06:16:45.253Z,2.83
2018-03-07T06:19:11.452Z,2.37
2018-03-07T06:21:38.389Z,2.10
2018-03-07T06:24:04.603Z,2.67
2018-03-07T06:26:30.804Z,2.40
2018-03-07T06:28:57.049Z,2.30
2018-03-07T06:31:23.269Z,2.10
2018-03-07T06:33:49.501Z,1.53
2018-03-07T06:36:15.750Z,1.97
2018-03-07T06:38:41.942Z,1.40
2018-03-07T06:41:08.181Z,1.93
2018-03-07T06:43:34.343Z,1.65
2018-03-07T06:46:01.289Z,1.50
2018-03-07T06:48:28.199Z,1.70
2018-03-07T06:50:54.461Z,2.00
2018-03-07T06:53:21.417Z,1.48
2018-03-07T06:55:48.396Z,1.98
2018-03-07T06:58:14.591Z,1.70
2018-03-07T07:00:41.523Z,1.67
2018-03-07T07:03:08.443Z,1.70
2018-03-07T07:05:34.655Z,1.47
2018-03-07T07:08:00.857Z,1.37
2018-03-07T07:10:27.055Z,1.70
2018-03-07T07:12:53.994Z,1.62
2018-03-07T07:15:20.928Z,1.73
2018-03-07T07:17:47.126Z,1.60
2018-03-07T07:20:13.341Z,1.50
2018-03-07T07:22:39.558Z,1.80
2018-03-07T07:25:05.731Z,1.70
2018-03-07T07:27:31.964Z,1.43
2018-03-07T07:29:58.119Z,1.53
2018-03-07T07:32:24.313Z,1.70
2018-03-07T07:34:50.636Z,1.63
2018-03-07T07:37:16.860Z,1.57
2018-03-07T07:39:43.098Z,1.23
2018-03-07T07:42:09.392Z,1.80
2018-03-07T07:44:35.679Z,2.33
2018-03-07T07:47:02.620Z,2.35
2018-03-07T07:49:28.859Z,1.40
2018-03-07T07:51:55.856Z,1.97
2018-03-07T07:54:22.081Z,1.90
2018-03-07T07:56:48.276Z,1.93
2018-03-07T07:59:14.451Z,2.40
2018-03-07T08:01:40.661Z,2.07
2018-03-07T08:04:06.928Z,1.83
2018-03-07T08:06:33.156Z,2.57
2018-03-07T08:08:59.349Z,2.60
2018-03-07T08:11:25.537Z,3.20
2018-03-07T08:13:51.781Z,2.70
2018-03-07T08:16:18.052Z,2.67
2018-03-07T08:18:44.285Z,2.63
2018-03-07T08:21:10.499Z,2.93
2018-03-07T08:23:36.697Z,3.07
2018-03-07T08:26:02.924Z,3.07
2018-03-07T08:28:29.101Z,3.22
2018-03-07T08:30:55.326Z,3.10
2018-03-07T08:33:21.532Z,2.80
2018-03-07T08:35:47.704Z,3.40
2018-03-07T08:38:14.667Z,2.70
2018-03-07T08:40:40.906Z,2.15
2018-03-07T08:43:07.156Z,2.73
2018-03-07T08:45:33.382Z,2.63
2018-03-07T08:47:59.564Z,2.30
2018-03-07T08:50:26.526Z,2.70
2018-03-07T08:52:52.724Z,2.80
2018-03-07T08:55:19.710Z,2.10
2018-03-07T08:57:45.929Z,2.20
2018-03-07T09:00:12.120Z,1.90
2018-03-07T09:02:38.325Z,1.57
2018-03-07T09:05:04.557Z,1.23
2018-03-07T09:07:30.784Z,1.17
2018-03-07T09:09:56.990Z,1.90
2018-03-07T09:12:23.212Z,1.70
2018-03-07T09:14:49.407Z,1.52
2018-03-07T09:17:16.366Z,1.20
2018-03-07T09:19:42.573Z,1.30
2018-03-07T09:22:09.499Z,1.10
2018-03-07T09:24:35.688Z,1.60
2018-03-07T09:27:01.896Z,1.47
2018-03-07T09:29:28.083Z,1.60
2018-03-07T09:31:54.282Z,1.40
2018-03-07T09:34:20.485Z,1.73
2018-03-07T09:36:46.714Z,1.53
2018-03-07T09:39:12.897Z,1.70
2018-03-07T09:41:39.085Z,1.10
2018-03-07T09:44:05.277Z,1.00
2018-03-07T09:46:31.493Z,1.20
2018-03-07T09:48:58.413Z,1.30
2018-03-07T09:51:24.608Z,1.90
2018-03-07T09:53:50.788Z,1.20
2018-03-07T09:56:17.747Z,1.83
2018-03-07T09:58:43.917Z,1.43
2018-03-07T10:01:10.086Z,1.43
2018-03-07T10:03:36.993Z,1.40
2018-03-07T10:06:03.207Z,1.20
2018-03-07T10:08:29.391Z,1.37
2018-03-07T10:10:56.377Z,1.53
2018-03-07T10:13:22.538Z,1.70
2018-03-07T10:15:49.497Z,1.70
2018-03-07T10:18:16.508Z,1.70
2018-03-07T10:20:42.745Z,1.20
2018-03-07T10:23:09.258Z,1.80
2018-03-07T10:25:35.435Z,1.10
2018-03-07T10:28:02.484Z,1.77
2018-03-07T10:30:30.601Z,1.10
2018-03-07T10:32:57.937Z,1.30
2018-03-07T10:35:25.411Z,1.57
2018-03-07T10:37:52.992Z,1.40
2018-03-07T10:40:20.134Z,1.33
2018-03-07T10:42:47.153Z,1.60
2018-03-07T10:45:14.744Z,2.20
2018-03-07T10:47:42.014Z,1.53
2018-03-07T10:50:09.277Z,1.10
2018-03-07T10:52:36.743Z,1.10
2018-03-07T10:55:04.585Z,0.90
2018-03-07T10:57:31.908Z,1.00
2018-03-07T10:59:59.018Z,1.63
2018-03-07T11:02:26.644Z,1.00
2018-03-07T11:04:53.678Z,0.93
2018-03-07T11:07:21.225Z,1.20
2018-03-07T11:09:48.766Z,0.90
2018-03-07T11:12:16.299Z,0.93
2018-03-07T11:14:43.488Z,1.70
2018-03-07T11:17:11.342Z,0.90
2018-03-07T11:19:38.558Z,1.40
2018-03-07T11:22:05.756Z,1.00
2018-03-07T11:24:33.797Z,1.60
2018-03-07T11:27:01.230Z,1.20
2018-03-07T11:29:28.956Z,1.77
2018-03-07T11:31:55.259Z,1.10
2018-03-07T11:34:21.506Z,1.00
2018-03-07T11:36:47.705Z,1.43
2018-03-07T11:39:13.896Z,1.00
2018-03-07T11:41:40.064Z,0.90
2018-03-07T11:44:06.254Z,1.00
2018-03-07T11:46:32.443Z,1.37
2018-03-07T11:48:58.648Z,1.00
2018-03-07T11:51:24.836Z,1.20
2018-03-07T11:53:51.063Z,0.73
2018-03-07T11:56:17.281Z,0.90
2018-03-07T11:58:43.501Z,0.80
2018-03-07T12:01:09.693Z,1.20
2018-03-07T12:03:35.900Z,1.20
2018-03-07T12:06:02.129Z,1.37
2018-03-07T12:08:29.048Z,0.90
2018-03-07T12:10:55.240Z,1.90
2018-03-07T12:13:21.448Z,1.10
2018-03-07T12:15:47.674Z,1.17
2018-03-07T12:18:13.873Z,0.97
2018-03-07T12:20:40.797Z,1.07
2018-03-07T12:23:06.980Z,0.80
2018-03-07T12:25:33.184Z,0.80
2018-03-07T12:28:00.153Z,0.60
2018-03-07T12:30:26.417Z,0.70
2018-03-07T12:32:52.823Z,0.80
2018-03-07T12:35:18.997Z,0.90
2018-03-07T12:37:45.949Z,1.10
2018-03-07T12:40:12.952Z,0.73
2018-03-07T12:42:39.136Z,1.03
2018-03-07T12:45:06.084Z,0.70
2018-03-07T12:47:32.297Z,1.20
2018-03-07T12:49:59.235Z,1.00
2018-03-07T12:52:25.460Z,1.10
2018-03-07T12:54:52.428Z,1.10
2018-03-07T12:57:19.377Z,1.10
2018-03-07T12:59:45.531Z,1.00
2018-03-07T13:02:11.738Z,1.10
2018-03-07T13:04:37.965Z,0.90
2018-03-07T13:07:04.141Z,1.10
2018-03-07T13:09:30.328Z,1.47
2018-03-07T13:11:56.519Z,1.00
2018-03-07T13:14:23.477Z,0.87
2018-03-07T13:16:49.641Z,1.17
2018-03-07T13:19:15.833Z,0.87
2018-03-07T13:21:42.770Z,1.37
2018-03-07T13:24:09.726Z,1.20
2018-03-07T13:26:35.938Z,1.27
2018-03-07T13:29:02.829Z,1.57
2018-03-07T13:31:29.069Z,1.00
2018-03-07T13:33:55.264Z,1.30
2018-03-07T13:36:21.476Z,1.50
2018-03-07T13:38:47.808Z,0.90
2018-03-07T13:41:14.813Z,1.10
2018-03-07T13:43:41.015Z,0.83
2018-03-07T13:46:07.236Z,1.10
2018-03-07T13:48:33.423Z,1.10
2018-03-07T13:51:00.358Z,0.80
2018-03-07T13:53:26.601Z,0.97
2018-03-07T13:55:52.798Z,1.10
2018-03-07T13:58:19.051Z,1.00
2018-03-07T14:00:45.969Z,0.87
2018-03-07T14:03:12.149Z,1.63
2018-03-07T14:05:38.348Z,0.90
2018-03-07T14:08:05.306Z,1.37
2018-03-07T14:10:31.488Z,1.37
2018-03-07T14:12:57.673Z,1.10
2018-03-07T14:15:23.900Z,1.30
2018-03-07T14:17:50.186Z,1.17
2018-03-07T14:20:16.352Z,1.47
2018-03-07T14:22:42.495Z,1.07
2018-03-07T14:25:08.750Z,1.00
2018-03-07T14:27:34.932Z,1.40
2018-03-07T14:30:01.189Z,0.70
2018-03-07T14:32:27.348Z,1.03
2018-03-07T14:34:53.600Z,0.80
2018-03-07T14:37:20.577Z,0.90
2018-03-07T14:39:46.749Z,0.77
2018-03-07T14:42:12.964Z,1.07
2018-03-07T14:44:39.210Z,1.10
2018-03-07T14:47:05.645Z,0.90
2018-03-07T14:49:31.893Z,0.80
2018-03-07T14:51:58.057Z,1.30
2018-03-07T14:54:24.240Z,1.60
2018-03-07T14:56:51.275Z,1.40
2018-03-07T14:59:17.486Z,0.90
2018-03-07T15:01:43.694Z,1.10
2018-03-07T15:04:09.891Z,0.93
2018-03-07T15:06:36.121Z,1.13
2018-03-07T15:09:02.328Z,1.10
2018-03-07T15:11:29.301Z,1.17
2018-03-07T15:13:55.494Z,1.00
2018-03-07T15:16:22.416Z,1.00
2018-03-07T15:18:48.655Z,0.90
2018-03-07T15:21:15.050Z,0.80
2018-03-07T15:23:41.302Z,1.13
2018-03-07T15:26:07.558Z,1.00
2018-03-07T15:28:34.487Z,0.80
2018-03-07T15:31:00.714Z,0.80
2018-03-07T15:33:27.018Z,0.97
2018-03-07T15:35:53.252Z,0.90
2018-03-07T15:38:19.459Z,1.00
2018-03-07T15:40:45.731Z,1.10
2018-03-07T15:43:11.925Z,0.80
2018-03-07T15:45:38.144Z,0.83
2018-03-07T15:48:04.402Z,0.90
2018-03-07T15:50:30.628Z,1.30
2018-03-07T15:52:56.836Z,1.23
2018-03-07T15:55:23.020Z,1.00
2018-03-07T15:57:50.061Z,0.80
2018-03-07T16:00:16.267Z,1.30
2018-03-07T16:02:42.460Z,0.87
2018-03-07T16:05:08.660Z,1.30
2018-03-07T16:07:34.857Z,1.50
2018-03-07T16:10:01.046Z,3.00
2018-03-07T16:12:27.278Z,2.73
2018-03-07T16:14:53.498Z,2.60
2018-03-07T16:17:19.705Z,3.13
2018-03-07T16:19:45.923Z,1.30
2018-03-07T16:22:12.199Z,1.23
2018-03-07T16:24:38.414Z,1.70
2018-03-07T16:27:04.618Z,2.03
2018-03-07T16:29:30.863Z,1.10
2018-03-07T16:31:57.873Z,1.20
2018-03-07T16:34:24.097Z,1.30
2018-03-07T16:36:51.043Z,1.53
2018-03-07T16:39:18.048Z,2.37
2018-03-07T16:41:44.252Z,6.17
2018-03-07T16:44:10.484Z,3.30
2018-03-07T16:46:36.683Z,3.43
2018-03-07T16:49:02.869Z,2.93
2018-03-07T16:51:29.077Z,2.60
2018-03-07T16:53:55.290Z,1.90
2018-03-07T16:56:21.556Z,2.40
2018-03-07T16:58:47.724Z,1.80
2018-03-07T17:01:14.008Z,1.90
2018-03-07T17:03:40.180Z,2.07
2018-03-07T17:06:06.424Z,1.80
2018-03-07T17:08:32.633Z,1.70
2018-03-07T17:10:58.882Z,2.33
2018-03-07T17:13:25.073Z,1.80
2018-03-07T17:15:52.068Z,2.33
2018-03-07T17:18:18.261Z,1.70
2018-03-07T17:20:44.482Z,1.90
2018-03-07T17:23:10.686Z,1.60
2018-03-07T17:25:36.913Z,2.00
2018-03-07T17:28:03.150Z,1.87
2018-03-07T17:30:29.377Z,2.10
2018-03-07T17:32:56.312Z,1.77
2018-03-07T17:35:22.535Z,2.53
2018-03-07T17:40:35.105Z,2.77
2018-03-07T17:43:01.303Z,3.10
2018-03-07T17:45:27.613Z,2.23
2018-03-07T17:47:53.837Z,2.20
2018-03-07T17:50:20.076Z,2.57
2018-03-07T17:52:46.284Z,3.20
2018-03-07T17:55:12.472Z,2.67
2018-03-07T17:57:38.676Z,2.00
2018-03-07T18:00:05.637Z,1.90
2018-03-07T18:02:31.880Z,2.03
2018-03-07T18:04:58.073Z,2.43
2018-03-07T18:07:24.427Z,2.20
2018-03-07T18:09:50.604Z,2.13
2018-03-07T18:12:16.880Z,2.50
2018-03-07T18:14:43.106Z,2.43
2018-03-07T18:17:09.264Z,2.50
2018-03-07T18:19:35.466Z,2.50
2018-03-07T18:22:01.641Z,2.10
2018-03-07T18:24:27.867Z,2.50
2018-03-07T18:26:54.065Z,2.67
2018-03-07T18:29:20.243Z,2.60
2018-03-07T18:31:46.423Z,2.20
2018-03-07T18:34:12.673Z,2.30
2018-03-07T18:36:38.881Z,2.83
2018-03-07T18:39:05.107Z,2.10
2018-03-07T18:41:31.340Z,1.90
2018-03-07T18:43:57.581Z,1.77
2018-03-07T18:46:23.814Z,1.40
2018-03-07T18:48:50.001Z,1.77
2018-03-07T18:51:16.232Z,1.80
2018-03-07T18:53:42.481Z,1.47
2018-03-07T18:56:08.680Z,1.67
2018-03-07T18:58:34.864Z,2.07
2018-03-07T19:01:01.101Z,1.80
2018-03-07T19:03:27.435Z,2.03
2018-03-07T19:05:54.368Z,1.70
2018-03-07T19:08:20.558Z,1.40
2018-03-07T19:10:46.790Z,2.23
2018-03-07T19:13:13.003Z,1.80
2018-03-07T19:15:39.241Z,1.70
2018-03-07T19:18:05.434Z,1.33
2018-03-07T19:20:32.424Z,1.57
2018-03-07T19:22:58.610Z,2.60
2018-03-07T19:25:24.946Z,2.73
2018-03-07T19:27:51.137Z,3.40
2018-03-07T19:30:17.323Z,2.60
2018-03-07T19:32:43.511Z,1.50
2018-03-07T19:35:10.472Z,1.60
2018-03-07T19:37:37.405Z,1.70
2018-03-07T19:40:04.389Z,2.00
2018-03-07T19:42:30.668Z,2.47
2018-03-07T19:44:56.831Z,2.23
2018-03-07T19:47:23.046Z,2.70
2018-03-07T19:49:50.022Z,2.50
2018-03-07T19:52:16.278Z,2.10
2018-03-07T19:54:42.486Z,1.73
2018-03-07T19:57:08.679Z,1.80
2018-03-07T19:59:35.617Z,2.00
2018-03-07T20:02:02.578Z,1.90
2018-03-07T20:04:28.796Z,1.83
2018-03-07T20:06:55.760Z,1.50
2018-03-07T20:09:21.945Z,1.60
2018-03-07T20:11:48.261Z,1.47
2018-03-07T20:14:14.961Z,1.50
2018-03-07T20:16:41.281Z,1.97
2018-03-07T20:19:07.470Z,1.77
2018-03-07T20:21:34.415Z,1.87
2018-03-07T20:24:00.689Z,2.20
2018-03-07T20:26:26.874Z,2.17
2018-03-07T20:28:53.956Z,1.90
2018-03-07T20:31:20.282Z,2.30
2018-03-07T20:33:46.581Z,3.10
2018-03-07T20:36:12.944Z,2.33
2018-03-07T20:38:39.207Z,2.00
2018-03-07T20:41:05.419Z,2.10
2018-03-07T20:43:31.670Z,2.33
2018-03-07T20:45:57.945Z,2.42
2018-03-07T20:48:24.239Z,2.58
2018-03-07T20:50:51.274Z,2.70
2018-03-07T20:53:17.526Z,2.30
2018-03-07T20:55:43.789Z,2.30
2018-03-07T20:58:10.008Z,2.33
2018-03-07T21:00:36.258Z,2.40
2018-03-07T21:03:02.510Z,3.00
2018-03-07T21:05:28.715Z,2.95
2018-03-07T21:07:54.952Z,3.40
2018-03-07T21:10:21.184Z,3.50
2018-03-07T21:12:47.368Z,3.30
2018-03-07T21:15:14.384Z,3.90
2018-03-07T21:17:40.575Z,3.35
2018-03-07T21:20:06.796Z,3.22
2018-03-07T21:22:33.005Z,4.10
2018-03-07T21:24:59.253Z,3.75
2018-03-07T21:27:25.430Z,3.65
2018-03-07T21:29:51.635Z,3.17
2018-03-07T21:32:17.902Z,2.72
2018-03-07T21:34:44.853Z,3.92
2018-03-07T21:37:11.065Z,3.22
2018-03-07T21:39:37.301Z,3.28
2018-03-07T21:42:04.299Z,3.47
2018-03-07T21:44:30.566Z,3.22
2018-03-07T21:46:56.780Z,3.65
2018-03-07T21:49:23.020Z,3.00
2018-03-07T21:51:49.202Z,3.30
2018-03-07T21:54:15.389Z,3.00
2018-03-07T21:56:42.356Z,3.30
2018-03-07T21:59:08.568Z,2.30
2018-03-07T22:01:35.504Z,2.25
2018-03-07T22:04:01.734Z,2.40
2018-03-07T22:06:28.695Z,2.15
2018-03-07T22:08:54.928Z,2.72
2018-03-07T22:11:21.124Z,3.28
2018-03-07T22:13:47.340Z,2.60
2018-03-07T22:16:13.593Z,3.30
2018-03-07T22:18:40.508Z,3.10
2018-03-07T22:21:06.740Z,2.75
2018-03-07T22:23:32.973Z,2.58
2018-03-07T22:25:59.176Z,3.20
2018-03-07T22:28:25.371Z,2.70
2018-03-07T22:30:51.586Z,2.85
2018-03-07T22:33:18.597Z,3.03
2018-03-07T22:35:44.821Z,3.00
2018-03-07T22:38:11.062Z,2.72
2018-03-07T22:40:37.312Z,2.65
2018-03-07T22:43:04.256Z,3.78
2018-03-07T22:45:31.253Z,2.78
2018-03-07T22:47:57.471Z,2.65
2018-03-07T22:50:23.633Z,2.78
2018-03-07T22:52:49.844Z,2.97
2018-03-07T22:55:16.051Z,2.97
2018-03-07T22:57:42.291Z,2.75
2018-03-07T23:00:14.645Z,2.42
2018-03-07T23:02:40.888Z,2.95
2018-03-07T23:05:07.065Z,2.65
2018-03-07T23:07:33.989Z,2.87
2018-03-07T23:10:00.214Z,2.60
2018-03-07T23:12:26.381Z,2.47
2018-03-07T23:14:52.643Z,2.53
2018-03-07T23:17:18.914Z,2.70
2018-03-07T23:19:45.103Z,2.75
2018-03-07T23:22:11.357Z,2.95
2018-03-07T23:24:37.612Z,3.15
2018-03-07T23:27:04.575Z,2.62
2018-03-07T23:29:30.780Z,2.30
2018-03-07T23:31:57.738Z,2.33
2018-03-07T23:34:23.960Z,2.92
2018-03-07T23:36:50.921Z,2.35
2018-03-07T23:39:17.163Z,2.90
2018-03-07T23:41:43.356Z,2.80
2018-03-07T23:44:09.624Z,2.10
2018-03-07T23:46:35.859Z,1.90
2018-03-07T23:49:02.061Z,2.40
2018-03-07T23:51:28.283Z,2.40
2018-03-07T23:53:54.481Z,2.40
2018-03-07T23:56:21.469Z,2.30
2018-03-07T23:58:47.676Z,2.00
